Two Hills, Canada
Current Conditions -  °F | °C
As of 2:46 AM on Friday 28 Nov 2014 (Local Time) from CYED Reporting Station
Overcast Overcast  
Wind Chill: -20°   Ceiling: 1700
Heat Index: -4°   Visibility: 2.2mi
Dew Point: -8°   Wind: 9mph
Humidity: 85%   Direction: 40°NE
Pressure: 29.86"   Gusts: NA
Location:  53.72°N, 111.75°W
Report Text: CYED 280946Z AUTO 04008KT 2 1/4SM OVC017 M20/M22 A2986
Loading
Personal Weather Stations






























Interactive Weather Map New forecast layout! Learn more

10-Day Weather Forecast

Advertisements
Track Severe Weather on mobile